sensor_id;sensor_type;location;lat;lon;timestamp;P1;durP1;ratioP1;P2;durP2;ratioP2
41139;SDS011;26881;48.784;9.192;2023-01-20T00:00:00;15.57;;;10.70;;
41139;SDS011;26881;48.784;9.192;2023-01-20T00:05:24;16.67;;;11.40;;
41139;SDS011;26881;48.784;9.192;2023-01-20T00:10:45;19.83;;;12.90;;
41139;SDS011;26881;48.784;9.192;2023-01-20T00:16:08;18.60;;;11.73;;
41139;SDS011;26881;48.784;9.192;2023-01-20T00:21:31;16.23;;;11.23;;
41139;SDS011;26881;48.784;9.192;2023-01-20T00:26:53;15.97;;;11.70;;
41139;SDS011;26881;48.784;9.192;2023-01-20T00:32:14;21.40;;;12.80;;
41139;SDS011;26881;48.784;9.192;2023-01-20T00:37:36;21.77;;;13.30;;
41139;SDS011;26881;48.784;9.192;2023-01-20T00:42:58;23.57;;;12.90;;
41139;SDS011;26881;48.784;9.192;2023-01-20T00:48:20;23.60;;;13.90;;
41139;SDS011;26881;48.784;9.192;2023-01-20T00:53:42;19.17;;;12.73;;
41139;SDS011;26881;48.784;9.192;2023-01-20T00:59:04;21.23;;;12.80;;
41139;SDS011;26881;48.784;9.192;2023-01-20T01:04:26;20.40;;;12.73;;
41139;SDS011;26881;48.784;9.192;2023-01-20T01:09:47;20.93;;;12.77;;
41139;SDS011;26881;48.784;9.192;2023-01-20T01:15:09;20.57;;;12.40;;
41139;SDS011;26881;48.784;9.192;2023-01-20T01:20:31;18.00;;;11.97;;
41139;SDS011;26881;48.784;9.192;2023-01-20T01:25:53;18.20;;;11.70;;
41139;SDS011;26881;48.784;9.192;2023-01-20T01:31:15;19.63;;;12.13;;
41139;SDS011;26881;48.784;9.192;2023-01-20T01:36:39;17.40;;;11.67;;
41139;SDS011;26881;48.784;9.192;2023-01-20T01:42:01;21.63;;;11.80;;
41139;SDS011;26881;48.784;9.192;2023-01-20T01:47:22;15.03;;;11.07;;
41139;SDS011;26881;48.784;9.192;2023-01-20T01:52:45;20.07;;;12.83;;
41139;SDS011;26881;48.784;9.192;2023-01-20T01:58:11;19.33;;;12.50;;
41139;SDS011;26881;48.784;9.192;2023-01-20T02:04:19;15.60;;;11.37;;
41139;SDS011;26881;48.784;9.192;2023-01-20T02:09:30;16.67;;;11.90;;
41139;SDS011;26881;48.784;9.192;2023-01-20T02:14:52;17.50;;;12.50;;
41139;SDS011;26881;48.784;9.192;2023-01-20T02:20:38;19.67;;;11.90;;
41139;SDS011;26881;48.784;9.192;2023-01-20T02:43:21;21.40;;;12.97;;
41139;SDS011;26881;48.784;9.192;2023-01-20T02:48:59;19.17;;;13.67;;
41139;SDS011;26881;48.784;9.192;2023-01-20T02:54:35;20.67;;;12.57;;
41139;SDS011;26881;48.784;9.192;2023-01-20T03:00:02;18.97;;;13.03;;
41139;SDS011;26881;48.784;9.192;2023-01-20T03:05:29;19.70;;;12.13;;
41139;SDS011;26881;48.784;9.192;2023-01-20T03:10:53;15.87;;;12.00;;
41139;SDS011;26881;48.784;9.192;2023-01-20T03:16:20;22.07;;;13.10;;
41139;SDS011;26881;48.784;9.192;2023-01-20T03:21:44;17.33;;;12.27;;
41139;SDS011;26881;48.784;9.192;2023-01-20T03:27:06;18.07;;;12.27;;
41139;SDS011;26881;48.784;9.192;2023-01-20T03:32:28;16.63;;;12.03;;
41139;SDS011;26881;48.784;9.192;2023-01-20T03:37:50;18.17;;;11.20;;
41139;SDS011;26881;48.784;9.192;2023-01-20T03:55:02;11.23;;;8.50;;
41139;SDS011;26881;48.784;9.192;2023-01-20T04:00:27;10.23;;;8.27;;
41139;SDS011;26881;48.784;9.192;2023-01-20T04:05:53;9.30;;;7.60;;
41139;SDS011;26881;48.784;9.192;2023-01-20T04:11:18;10.47;;;7.83;;
41139;SDS011;26881;48.784;9.192;2023-01-20T04:16:41;9.97;;;7.43;;
41139;SDS011;26881;48.784;9.192;2023-01-20T04:27:32;8.53;;;7.27;;
41139;SDS011;26881;48.784;9.192;2023-01-20T04:32:54;8.57;;;6.73;;
41139;SDS011;26881;48.784;9.192;2023-01-20T04:38:16;10.03;;;7.63;;
41139;SDS011;26881;48.784;9.192;2023-01-20T04:43:38;11.23;;;7.30;;
41139;SDS011;26881;48.784;9.192;2023-01-20T04:49:04;9.57;;;6.77;;
41139;SDS011;26881;48.784;9.192;2023-01-20T04:54:26;8.87;;;6.83;;
41139;SDS011;26881;48.784;9.192;2023-01-20T04:59:47;10.53;;;7.03;;
41139;SDS011;26881;48.784;9.192;2023-01-20T05:05:10;10.37;;;7.13;;
41139;SDS011;26881;48.784;9.192;2023-01-20T05:10:32;9.10;;;7.17;;
41139;SDS011;26881;48.784;9.192;2023-01-20T05:15:54;10.03;;;7.20;;
41139;SDS011;26881;48.784;9.192;2023-01-20T05:21:16;10.27;;;8.03;;
41139;SDS011;26881;48.784;9.192;2023-01-20T05:26:37;10.33;;;8.37;;
41139;SDS011;26881;48.784;9.192;2023-01-20T05:31:59;10.20;;;7.70;;
41139;SDS011;26881;48.784;9.192;2023-01-20T05:37:21;8.87;;;7.30;;
41139;SDS011;26881;48.784;9.192;2023-01-20T05:42:43;10.80;;;7.40;;
41139;SDS011;26881;48.784;9.192;2023-01-20T05:48:04;9.43;;;7.57;;
41139;SDS011;26881;48.784;9.192;2023-01-20T05:53:26;12.20;;;8.13;;
41139;SDS011;26881;48.784;9.192;2023-01-20T05:58:48;11.87;;;7.40;;
41139;SDS011;26881;48.784;9.192;2023-01-20T06:04:14;12.30;;;8.07;;
41139;SDS011;26881;48.784;9.192;2023-01-20T06:09:36;12.13;;;7.93;;
41139;SDS011;26881;48.784;9.192;2023-01-20T06:14:58;9.93;;;8.03;;
41139;SDS011;26881;48.784;9.192;2023-01-20T06:20:19;10.67;;;7.93;;
41139;SDS011;26881;48.784;9.192;2023-01-20T06:25:41;11.60;;;7.13;;
41139;SDS011;26881;48.784;9.192;2023-01-20T06:31:08;13.17;;;7.47;;
41139;SDS011;26881;48.784;9.192;2023-01-20T06:36:32;11.47;;;7.40;;
41139;SDS011;26881;48.784;9.192;2023-01-20T06:41:57;9.53;;;7.40;;
41139;SDS011;26881;48.784;9.192;2023-01-20T06:47:20;10.93;;;8.73;;
41139;SDS011;26881;48.784;9.192;2023-01-20T06:52:41;13.27;;;7.77;;
41139;SDS011;26881;48.784;9.192;2023-01-20T06:58:03;12.03;;;8.00;;
41139;SDS011;26881;48.784;9.192;2023-01-20T07:03:25;13.17;;;8.57;;
41139;SDS011;26881;48.784;9.192;2023-01-20T07:08:47;13.47;;;8.23;;
41139;SDS011;26881;48.784;9.192;2023-01-20T07:14:08;19.57;;;8.60;;
41139;SDS011;26881;48.784;9.192;2023-01-20T07:19:30;12.47;;;8.37;;
41139;SDS011;26881;48.784;9.192;2023-01-20T07:24:52;13.17;;;8.50;;
41139;SDS011;26881;48.784;9.192;2023-01-20T07:30:14;11.00;;;7.23;;
41139;SDS011;26881;48.784;9.192;2023-01-20T07:35:36;11.10;;;7.27;;
41139;SDS011;26881;48.784;9.192;2023-01-20T07:41:13;14.17;;;8.30;;
41139;SDS011;26881;48.784;9.192;2023-01-20T07:46:38;10.60;;;7.93;;
41139;SDS011;26881;48.784;9.192;2023-01-20T07:52:00;9.63;;;7.30;;
41139;SDS011;26881;48.784;9.192;2023-01-20T07:57:22;11.73;;;8.20;;
41139;SDS011;26881;48.784;9.192;2023-01-20T08:02:43;11.53;;;8.03;;
41139;SDS011;26881;48.784;9.192;2023-01-20T08:08:05;12.37;;;8.07;;
41139;SDS011;26881;48.784;9.192;2023-01-20T08:13:27;10.43;;;7.90;;
41139;SDS011;26881;48.784;9.192;2023-01-20T08:18:51;12.43;;;8.67;;
41139;SDS011;26881;48.784;9.192;2023-01-20T08:24:15;13.27;;;8.43;;
41139;SDS011;26881;48.784;9.192;2023-01-20T08:29:36;14.53;;;8.40;;
41139;SDS011;26881;48.784;9.192;2023-01-20T08:34:58;11.93;;;9.30;;
41139;SDS011;26881;48.784;9.192;2023-01-20T08:40:20;13.50;;;9.50;;
41139;SDS011;26881;48.784;9.192;2023-01-20T08:45:42;21.80;;;9.07;;
41139;SDS011;26881;48.784;9.192;2023-01-20T08:51:08;14.97;;;8.83;;
41139;SDS011;26881;48.784;9.192;2023-01-20T08:56:34;12.07;;;7.77;;
41139;SDS011;26881;48.784;9.192;2023-01-20T09:01:57;13.80;;;8.83;;
41139;SDS011;26881;48.784;9.192;2023-01-20T09:07:19;12.80;;;8.10;;
41139;SDS011;26881;48.784;9.192;2023-01-20T09:12:41;11.40;;;8.60;;
41139;SDS011;26881;48.784;9.192;2023-01-20T09:18:02;12.47;;;8.10;;
41139;SDS011;26881;48.784;9.192;2023-01-20T09:23:25;12.33;;;8.33;;
41139;SDS011;26881;48.784;9.192;2023-01-20T09:28:47;17.50;;;8.47;;
41139;SDS011;26881;48.784;9.192;2023-01-20T09:34:09;12.90;;;8.00;;
41139;SDS011;26881;48.784;9.192;2023-01-20T09:39:33;12.97;;;9.13;;
41139;SDS011;26881;48.784;9.192;2023-01-20T09:50:48;12.77;;;8.17;;
41139;SDS011;26881;48.784;9.192;2023-01-20T09:56:36;11.63;;;8.17;;
41139;SDS011;26881;48.784;9.192;2023-01-20T10:02:05;12.20;;;8.57;;
41139;SDS011;26881;48.784;9.192;2023-01-20T10:07:43;11.93;;;8.83;;
41139;SDS011;26881;48.784;9.192;2023-01-20T10:13:13;14.20;;;8.23;;
41139;SDS011;26881;48.784;9.192;2023-01-20T10:19:19;14.30;;;8.97;;
41139;SDS011;26881;48.784;9.192;2023-01-20T10:24:58;14.80;;;8.67;;
41139;SDS011;26881;48.784;9.192;2023-01-20T10:30:35;15.60;;;8.33;;
41139;SDS011;26881;48.784;9.192;2023-01-20T10:35:58;12.43;;;8.30;;
41139;SDS011;26881;48.784;9.192;2023-01-20T10:41:22;12.87;;;8.00;;
41139;SDS011;26881;48.784;9.192;2023-01-20T10:52:47;17.03;;;9.10;;
41139;SDS011;26881;48.784;9.192;2023-01-20T11:03:51;13.20;;;7.23;;
41139;SDS011;26881;48.784;9.192;2023-01-20T11:09:17;11.40;;;7.50;;
41139;SDS011;26881;48.784;9.192;2023-01-20T11:14:47;12.10;;;6.47;;
41139;SDS011;26881;48.784;9.192;2023-01-20T11:20:13;8.17;;;4.70;;
41139;SDS011;26881;48.784;9.192;2023-01-20T11:25:40;10.87;;;5.20;;
41139;SDS011;26881;48.784;9.192;2023-01-20T11:31:02;10.17;;;5.93;;
41139;SDS011;26881;48.784;9.192;2023-01-20T11:36:25;7.27;;;5.20;;
41139;SDS011;26881;48.784;9.192;2023-01-20T11:41:48;12.97;;;5.87;;
41139;SDS011;26881;48.784;9.192;2023-01-20T11:47:20;8.27;;;5.77;;
41139;SDS011;26881;48.784;9.192;2023-01-20T11:52:46;10.77;;;5.03;;
41139;SDS011;26881;48.784;9.192;2023-01-20T11:58:12;7.60;;;4.50;;
41139;SDS011;26881;48.784;9.192;2023-01-20T12:09:14;13.50;;;4.47;;
41139;SDS011;26881;48.784;9.192;2023-01-20T12:14:56;15.67;;;4.30;;
41139;SDS011;26881;48.784;9.192;2023-01-20T12:20:25;8.43;;;3.37;;
41139;SDS011;26881;48.784;9.192;2023-01-20T12:26:10;6.40;;;3.53;;
41139;SDS011;26881;48.784;9.192;2023-01-20T12:31:33;6.93;;;3.27;;
41139;SDS011;26881;48.784;9.192;2023-01-20T12:42:59;10.03;;;3.47;;
41139;SDS011;26881;48.784;9.192;2023-01-20T12:54:13;9.90;;;3.70;;
41139;SDS011;26881;48.784;9.192;2023-01-20T13:00:17;6.37;;;3.33;;
41139;SDS011;26881;48.784;9.192;2023-01-20T13:11:42;7.50;;;5.47;;
41139;SDS011;26881;48.784;9.192;2023-01-20T13:22:50;8.43;;;4.27;;
41139;SDS011;26881;48.784;9.192;2023-01-20T13:28:15;8.80;;;3.40;;
41139;SDS011;26881;48.784;9.192;2023-01-20T13:33:40;10.63;;;3.80;;
41139;SDS011;26881;48.784;9.192;2023-01-20T13:50:39;7.03;;;4.07;;
41139;SDS011;26881;48.784;9.192;2023-01-20T13:56:02;5.53;;;3.93;;
41139;SDS011;26881;48.784;9.192;2023-01-20T14:01:24;6.23;;;3.47;;
41139;SDS011;26881;48.784;9.192;2023-01-20T14:06:48;7.60;;;4.07;;
41139;SDS011;26881;48.784;9.192;2023-01-20T14:12:11;4.97;;;3.60;;
41139;SDS011;26881;48.784;9.192;2023-01-20T14:17:33;8.17;;;3.80;;
41139;SDS011;26881;48.784;9.192;2023-01-20T14:22:55;6.30;;;3.57;;
41139;SDS011;26881;48.784;9.192;2023-01-20T14:28:44;7.60;;;4.00;;
41139;SDS011;26881;48.784;9.192;2023-01-20T14:34:20;6.33;;;3.30;;
41139;SDS011;26881;48.784;9.192;2023-01-20T14:39:47;12.10;;;2.93;;
41139;SDS011;26881;48.784;9.192;2023-01-20T14:45:20;7.20;;;3.60;;
41139;SDS011;26881;48.784;9.192;2023-01-20T14:50:44;6.20;;;2.90;;
41139;SDS011;26881;48.784;9.192;2023-01-20T14:56:15;4.53;;;2.40;;
41139;SDS011;26881;48.784;9.192;2023-01-20T15:01:39;8.47;;;3.50;;
41139;SDS011;26881;48.784;9.192;2023-01-20T15:07:01;9.43;;;2.63;;
41139;SDS011;26881;48.784;9.192;2023-01-20T15:12:33;5.57;;;2.93;;
41139;SDS011;26881;48.784;9.192;2023-01-20T15:23:32;5.60;;;2.50;;
41139;SDS011;26881;48.784;9.192;2023-01-20T15:28:59;2.57;;;2.20;;
41139;SDS011;26881;48.784;9.192;2023-01-20T15:34:21;7.97;;;2.83;;
41139;SDS011;26881;48.784;9.192;2023-01-20T15:39:44;6.43;;;2.73;;
41139;SDS011;26881;48.784;9.192;2023-01-20T15:45:06;6.33;;;2.80;;
41139;SDS011;26881;48.784;9.192;2023-01-20T15:50:29;8.30;;;2.90;;
41139;SDS011;26881;48.784;9.192;2023-01-20T15:55:52;6.33;;;2.83;;
41139;SDS011;26881;48.784;9.192;2023-01-20T16:01:14;7.13;;;3.47;;
41139;SDS011;26881;48.784;9.192;2023-01-20T16:06:38;13.57;;;6.90;;
41139;SDS011;26881;48.784;9.192;2023-01-20T16:12:00;13.80;;;5.63;;
41139;SDS011;26881;48.784;9.192;2023-01-20T16:17:22;5.83;;;3.00;;
41139;SDS011;26881;48.784;9.192;2023-01-20T16:22:45;5.30;;;2.63;;
41139;SDS011;26881;48.784;9.192;2023-01-20T16:28:14;5.03;;;3.53;;
41139;SDS011;26881;48.784;9.192;2023-01-20T16:33:39;6.40;;;3.73;;
41139;SDS011;26881;48.784;9.192;2023-01-20T16:39:00;6.93;;;3.80;;
41139;SDS011;26881;48.784;9.192;2023-01-20T16:44:22;13.80;;;4.80;;
41139;SDS011;26881;48.784;9.192;2023-01-20T16:49:44;7.20;;;3.60;;
41139;SDS011;26881;48.784;9.192;2023-01-20T16:55:06;6.57;;;4.20;;
41139;SDS011;26881;48.784;9.192;2023-01-20T17:00:28;15.60;;;5.73;;
41139;SDS011;26881;48.784;9.192;2023-01-20T17:05:49;12.10;;;5.40;;
41139;SDS011;26881;48.784;9.192;2023-01-20T17:11:18;18.40;;;10.37;;
41139;SDS011;26881;48.784;9.192;2023-01-20T17:16:40;8.63;;;5.53;;
41139;SDS011;26881;48.784;9.192;2023-01-20T17:22:02;7.33;;;5.03;;
41139;SDS011;26881;48.784;9.192;2023-01-20T17:27:24;10.95;;;6.40;;
41139;SDS011;26881;48.784;9.192;2023-01-20T17:32:46;9.47;;;4.73;;
41139;SDS011;26881;48.784;9.192;2023-01-20T17:38:08;8.30;;;5.50;;
41139;SDS011;26881;48.784;9.192;2023-01-20T17:43:31;21.67;;;8.53;;
41139;SDS011;26881;48.784;9.192;2023-01-20T17:48:57;13.50;;;6.83;;
41139;SDS011;26881;48.784;9.192;2023-01-20T17:54:20;13.37;;;6.90;;
41139;SDS011;26881;48.784;9.192;2023-01-20T17:59:42;15.13;;;6.50;;
41139;SDS011;26881;48.784;9.192;2023-01-20T18:05:03;15.70;;;7.70;;
41139;SDS011;26881;48.784;9.192;2023-01-20T18:10:26;14.03;;;6.37;;
41139;SDS011;26881;48.784;9.192;2023-01-20T18:15:48;15.00;;;6.37;;
41139;SDS011;26881;48.784;9.192;2023-01-20T18:21:13;14.07;;;6.50;;
41139;SDS011;26881;48.784;9.192;2023-01-20T18:26:40;12.57;;;6.93;;
41139;SDS011;26881;48.784;9.192;2023-01-20T18:32:05;11.40;;;6.23;;
41139;SDS011;26881;48.784;9.192;2023-01-20T18:37:27;10.00;;;6.60;;
41139;SDS011;26881;48.784;9.192;2023-01-20T18:42:49;11.50;;;7.30;;
41139;SDS011;26881;48.784;9.192;2023-01-20T18:48:10;9.67;;;5.70;;
41139;SDS011;26881;48.784;9.192;2023-01-20T18:53:32;13.17;;;5.50;;
41139;SDS011;26881;48.784;9.192;2023-01-20T18:58:54;9.87;;;5.97;;
41139;SDS011;26881;48.784;9.192;2023-01-20T19:04:16;7.53;;;4.73;;
41139;SDS011;26881;48.784;9.192;2023-01-20T19:09:38;10.00;;;5.80;;
41139;SDS011;26881;48.784;9.192;2023-01-20T19:15:00;7.83;;;5.20;;
41139;SDS011;26881;48.784;9.192;2023-01-20T19:20:22;8.83;;;5.83;;
41139;SDS011;26881;48.784;9.192;2023-01-20T19:25:43;8.53;;;6.60;;
41139;SDS011;26881;48.784;9.192;2023-01-20T19:31:06;13.37;;;6.77;;
41139;SDS011;26881;48.784;9.192;2023-01-20T19:36:29;15.77;;;8.03;;
41139;SDS011;26881;48.784;9.192;2023-01-20T19:41:52;13.77;;;7.63;;
41139;SDS011;26881;48.784;9.192;2023-01-20T19:47:14;14.33;;;7.57;;
41139;SDS011;26881;48.784;9.192;2023-01-20T19:52:35;11.33;;;6.87;;
41139;SDS011;26881;48.784;9.192;2023-01-20T19:57:57;11.50;;;6.67;;
41139;SDS011;26881;48.784;9.192;2023-01-20T20:03:21;10.17;;;6.23;;
41139;SDS011;26881;48.784;9.192;2023-01-20T20:08:43;12.20;;;7.13;;
41139;SDS011;26881;48.784;9.192;2023-01-20T20:14:05;11.13;;;7.07;;
41139;SDS011;26881;48.784;9.192;2023-01-20T20:19:28;11.50;;;7.60;;
41139;SDS011;26881;48.784;9.192;2023-01-20T20:24:51;14.73;;;8.30;;
41139;SDS011;26881;48.784;9.192;2023-01-20T20:30:13;17.47;;;10.63;;
41139;SDS011;26881;48.784;9.192;2023-01-20T20:35:35;13.57;;;10.20;;
41139;SDS011;26881;48.784;9.192;2023-01-20T20:40:58;17.20;;;10.53;;
41139;SDS011;26881;48.784;9.192;2023-01-20T20:46:20;19.93;;;11.30;;
41139;SDS011;26881;48.784;9.192;2023-01-20T20:51:42;21.33;;;12.97;;
41139;SDS011;26881;48.784;9.192;2023-01-20T20:57:04;25.47;;;12.80;;
41139;SDS011;26881;48.784;9.192;2023-01-20T21:02:27;13.40;;;8.73;;
41139;SDS011;26881;48.784;9.192;2023-01-20T21:07:49;11.67;;;8.37;;
41139;SDS011;26881;48.784;9.192;2023-01-20T21:13:11;12.33;;;7.47;;
41139;SDS011;26881;48.784;9.192;2023-01-20T21:18:33;14.30;;;8.27;;
41139;SDS011;26881;48.784;9.192;2023-01-20T21:23:57;10.43;;;7.63;;
41139;SDS011;26881;48.784;9.192;2023-01-20T21:29:20;9.30;;;7.10;;
41139;SDS011;26881;48.784;9.192;2023-01-20T21:34:41;11.03;;;7.17;;
41139;SDS011;26881;48.784;9.192;2023-01-20T21:40:04;10.67;;;6.57;;
41139;SDS011;26881;48.784;9.192;2023-01-20T21:45:26;10.57;;;6.10;;
41139;SDS011;26881;48.784;9.192;2023-01-20T21:50:48;10.20;;;7.47;;
41139;SDS011;26881;48.784;9.192;2023-01-20T21:56:28;16.23;;;9.07;;
41139;SDS011;26881;48.784;9.192;2023-01-20T22:01:50;13.23;;;9.13;;
41139;SDS011;26881;48.784;9.192;2023-01-20T22:07:12;16.13;;;9.93;;
41139;SDS011;26881;48.784;9.192;2023-01-20T22:12:36;12.83;;;8.37;;
41139;SDS011;26881;48.784;9.192;2023-01-20T22:17:57;10.27;;;8.00;;
41139;SDS011;26881;48.784;9.192;2023-01-20T22:23:19;12.37;;;8.83;;
41139;SDS011;26881;48.784;9.192;2023-01-20T22:28:41;12.47;;;8.90;;
41139;SDS011;26881;48.784;9.192;2023-01-20T22:34:03;17.07;;;8.70;;
41139;SDS011;26881;48.784;9.192;2023-01-20T22:39:26;13.03;;;9.30;;
41139;SDS011;26881;48.784;9.192;2023-01-20T22:44:48;15.70;;;9.23;;
41139;SDS011;26881;48.784;9.192;2023-01-20T22:50:10;14.67;;;8.90;;
41139;SDS011;26881;48.784;9.192;2023-01-20T22:55:32;11.93;;;8.37;;
41139;SDS011;26881;48.784;9.192;2023-01-20T23:00:54;10.60;;;7.87;;
41139;SDS011;26881;48.784;9.192;2023-01-20T23:06:15;12.43;;;8.27;;
41139;SDS011;26881;48.784;9.192;2023-01-20T23:11:38;12.03;;;7.77;;
41139;SDS011;26881;48.784;9.192;2023-01-20T23:17:00;20.97;;;8.47;;
41139;SDS011;26881;48.784;9.192;2023-01-20T23:22:22;13.33;;;8.77;;
41139;SDS011;26881;48.784;9.192;2023-01-20T23:27:44;13.17;;;8.40;;
41139;SDS011;26881;48.784;9.192;2023-01-20T23:33:06;13.30;;;9.03;;
41139;SDS011;26881;48.784;9.192;2023-01-20T23:38:29;13.87;;;9.33;;
41139;SDS011;26881;48.784;9.192;2023-01-20T23:43:51;11.43;;;8.47;;
41139;SDS011;26881;48.784;9.192;2023-01-20T23:49:13;14.27;;;10.33;;
41139;SDS011;26881;48.784;9.192;2023-01-20T23:54:35;15.47;;;10.03;;
41139;SDS011;26881;48.784;9.192;2023-01-20T23:59:56;19.07;;;10.73;;
